Time;durP1;ratioP1;P1;durP2;ratioP2;P2;SDS_P1;SDS_P2;PMS_P1;PMS_P2;Temp;Humidity;BMP_temperature;BMP_pressure;BME280_temperature;BME280_humidity;BME280_pressure;Samples;Min_cycle;Max_cycle;Signal;HPM_P1;HPM_P2
2022/01/15 00:02:19;;;;;;;;;;;;;;;4.12;85.30;100969.31;5053896;28;19913;-77
2022/01/15 00:04:45;;;;;;;;;;;;;;;4.18;85.29;100970.56;5051857;28;19969;-76
2022/01/15 00:07:10;;;;;;;;;;;;;;;4.19;85.08;100977.66;5037468;28;20307;-76
2022/01/15 00:09:37;;;;;;;;;;;;;;;4.17;85.55;100982.72;5034440;28;20322;-77
2022/01/15 00:12:03;;;;;;;;;;;;;;;4.17;85.76;100985.47;5042471;28;19924;-77
2022/01/15 00:14:35;;;;;;;;;;;;;;;4.17;85.53;100974.47;5053160;28;19917;-76
2022/01/15 00:17:06;;;;;;;;;;;;;;;4.14;85.96;100981.50;5054250;28;19923;-77
2022/01/15 00:22:06;;;;;;;;;;;;;;;4.19;86.01;100981.19;5040940;28;20270;-76
2022/01/15 00:24:31;;;;;;;;;;;;;;;4.23;85.59;100973.00;5044293;28;19916;-77
2022/01/15 00:26:57;;;;;;;;;;;;;;;4.18;85.82;100968.63;5050565;28;20386;-76
2022/01/15 00:29:22;;;;;;;;;;;;;;;4.19;85.88;100977.66;5035416;28;19948;-76
2022/01/15 00:31:48;;;;;;;;;;;;;;;4.18;86.02;100987.06;5053663;28;19923;-76
2022/01/15 00:34:13;;;;;;;;;;;;;;;4.22;85.74;100982.41;5053598;28;19963;-77
2022/01/15 00:36:38;;;;;;;;;;;;;;;4.21;85.73;100986.31;5038888;28;19916;-77
2022/01/15 00:39:04;;;;;;;;;;;;;;;4.23;85.71;101000.47;5035095;28;20337;-77
2022/01/15 00:41:29;;;;;;;;;;;;;;;4.21;85.60;101002.78;5033478;28;19917;-76
2022/01/15 00:43:54;;;;;;;;;;;;;;;4.18;85.36;101000.78;5033638;28;19920;-76
2022/01/15 00:46:20;;;;;;;;;;;;;;;4.19;85.06;101013.34;5051448;28;19942;-87
2022/01/15 00:48:45;;;;;;;;;;;;;;;4.16;84.81;101017.66;5052604;28;19917;-86
2022/01/15 00:51:10;;;;;;;;;;;;;;;4.16;84.40;101022.34;5052161;28;19912;-85
2022/01/15 00:53:36;;;;;;;;;;;;;;;4.17;84.20;101037.63;5050922;28;19970;-86
2022/01/15 00:56:01;;;;;;;;;;;;;;;4.15;84.15;101045.47;5042154;28;19924;-86
2022/01/15 00:58:27;;;;;;;;;;;;;;;4.19;83.72;101052.59;5031778;28;19943;-86
2022/01/15 01:00:52;;;;;;;;;;;;;;;4.22;83.02;101060.09;5051293;28;19916;-86
2022/01/15 01:03:17;;;;;;;;;;;;;;;4.25;82.99;101064.03;5050597;28;20022;-85
2022/01/15 01:05:43;;;;;;;;;;;;;;;4.20;83.03;101064.38;5036831;28;20573;-85
2022/01/15 01:08:08;;;;;;;;;;;;;;;4.17;83.03;101065.09;5028095;28;19978;-86
2022/01/15 01:11:22;;;;;;;;;;;;;;;4.16;82.82;101074.50;5033526;28;19921;-86
2022/01/15 01:24:20;;;;;;;;;;;;;;;4.16;82.48;101080.00;5037518;28;20011;-86
2022/01/15 01:26:49;;;;;;;;;;;;;;;4.18;82.58;101074.94;5051123;28;20008;-86
2022/01/15 01:31:58;;;;;;;;;;;;;;;4.22;81.39;101081.25;5052168;28;19912;-85
2022/01/15 01:34:26;;;;;;;;;;;;;;;4.16;81.53;101086.28;5046579;28;19916;-85
2022/01/15 01:39:39;;;;;;;;;;;;;;;4.19;80.82;101088.31;5057369;28;19942;-85
2022/01/15 01:44:40;;;;;;;;;;;;;;;4.09;81.20;101088.09;5057873;28;19920;-85
2022/01/15 01:47:16;;;;;;;;;;;;;;;4.06;81.25;101094.34;5039185;28;20294;-85
2022/01/15 01:49:42;;;;;;;;;;;;;;;4.04;81.33;101096.69;5035071;28;20064;-85
2022/01/15 01:52:07;;;;;;;;;;;;;;;4.06;81.01;101083.38;5049236;28;20348;-85
2022/01/15 01:54:33;;;;;;;;;;;;;;;4.03;80.99;101073.13;5028550;28;20321;-85
2022/01/15 01:56:58;;;;;;;;;;;;;;;4.02;81.01;101088.00;5032578;28;19982;-85
2022/01/15 01:59:24;;;;;;;;;;;;;;;4.06;80.42;101066.88;5032856;28;20440;-85
2022/01/15 02:01:50;;;;;;;;;;;;;;;4.07;80.05;101069.28;5238400;22;19925;-78
2022/01/15 02:04:16;;;;;;;;;;;;;;;4.07;79.60;101052.81;5049154;28;19917;-79
2022/01/15 02:06:41;;;;;;;;;;;;;;;4.11;79.06;101059.16;5040629;28;19924;-79
2022/01/15 02:09:07;;;;;;;;;;;;;;;4.10;78.92;101056.75;5049142;28;19963;-79
2022/01/15 02:11:32;;;;;;;;;;;;;;;4.05;79.27;101068.84;5041315;28;20292;-78
2022/01/15 02:13:58;;;;;;;;;;;;;;;4.00;78.56;101060.94;5048346;28;19921;-78
2022/01/15 02:16:23;;;;;;;;;;;;;;;4.01;78.35;101070.72;5029986;28;20342;-79
2022/01/15 02:18:53;;;;;;;;;;;;;;;3.98;78.23;101073.44;5048059;28;19923;-78
2022/01/15 02:24:03;;;;;;;;;;;;;;;4.09;77.22;101075.19;5045172;28;19917;-78
2022/01/15 02:26:28;;;;;;;;;;;;;;;4.12;76.61;101068.19;5046070;28;19913;-79
2022/01/15 02:29:00;;;;;;;;;;;;;;;4.15;76.50;101067.44;5029461;28;19927;-78
2022/01/15 02:31:26;;;;;;;;;;;;;;;4.22;75.76;101059.28;5047660;28;19916;-78
2022/01/15 02:33:52;;;;;;;;;;;;;;;4.21;76.15;101065.94;5046748;28;20372;-79
2022/01/15 02:36:19;;;;;;;;;;;;;;;4.17;76.16;101073.34;5049766;28;19916;-79
2022/01/15 02:38:45;;;;;;;;;;;;;;;4.15;76.28;101067.44;5049552;28;19923;-79
2022/01/15 02:41:11;;;;;;;;;;;;;;;4.10;76.36;101063.03;5049614;28;20293;-84
2022/01/15 02:43:36;;;;;;;;;;;;;;;4.09;76.82;101066.16;5045978;28;19916;-84
2022/01/15 02:48:00;;;;;;;;;;;;;;;4.17;76.34;101062.34;5049774;28;20019;-85
2022/01/15 02:49:09;;;;;;;;;;;;;;;4.18;76.30;101050.22;5044171;28;19920;-84
2022/01/15 02:51:36;;;;;;;;;;;;;;;4.17;76.45;101059.59;5045891;28;20004;-83
2022/01/15 02:54:01;;;;;;;;;;;;;;;4.17;76.52;101048.63;5046656;28;19924;-84
2022/01/15 02:56:34;;;;;;;;;;;;;;;4.21;76.44;101058.50;5033775;28;19917;-80
2022/01/15 02:58:59;;;;;;;;;;;;;;;4.27;76.53;101069.97;5042053;28;19924;-84
2022/01/15 03:01:24;;;;;;;;;;;;;;;4.25;76.80;101069.53;5041651;28;19928;-84
2022/01/15 03:03:50;;;;;;;;;;;;;;;4.19;76.82;101054.53;5049887;28;20371;-84
2022/01/15 03:06:17;;;;;;;;;;;;;;;4.18;76.72;101052.97;5048782;28;19917;-84
2022/01/15 03:08:43;;;;;;;;;;;;;;;4.17;77.05;101068.63;5039131;28;19916;-84
2022/01/15 03:11:09;;;;;;;;;;;;;;;4.06;77.33;101050.41;5031599;28;19917;-84
2022/01/15 03:13:35;;;;;;;;;;;;;;;3.98;77.56;101059.69;5044783;28;19921;-84
2022/01/15 03:16:00;;;;;;;;;;;;;;;3.96;77.94;101062.03;5043321;28;19921;-79
2022/01/15 03:18:26;;;;;;;;;;;;;;;3.91;77.75;101068.63;5031141;28;20282;-84
2022/01/15 03:20:51;;;;;;;;;;;;;;;3.94;77.83;101059.66;5031247;28;19913;-84
2022/01/15 03:23:17;;;;;;;;;;;;;;;3.95;77.62;101082.41;5042581;28;19983;-84
2022/01/15 03:25:42;;;;;;;;;;;;;;;3.93;77.89;101080.00;5051156;28;20276;-85
2022/01/15 03:28:08;;;;;;;;;;;;;;;3.87;78.10;101072.47;5050625;28;20395;-85
2022/01/15 03:30:33;;;;;;;;;;;;;;;3.85;78.05;101094.78;5039502;28;20286;-85
2022/01/15 03:32:59;;;;;;;;;;;;;;;3.85;77.94;101093.97;5039520;28;19940;-84
2022/01/15 03:35:24;;;;;;;;;;;;;;;3.80;78.11;101094.31;5035266;28;19917;-85
2022/01/15 03:37:50;;;;;;;;;;;;;;;3.76;78.19;101097.00;5034928;28;19928;-84
2022/01/15 03:40:15;;;;;;;;;;;;;;;3.72;78.09;101090.66;5038080;28;20008;-83
2022/01/15 03:42:41;;;;;;;;;;;;;;;3.68;78.39;101092.53;5035632;28;19917;-84
2022/01/15 03:45:06;;;;;;;;;;;;;;;3.61;78.01;101090.44;5035361;28;19983;-84
2022/01/15 03:47:32;;;;;;;;;;;;;;;3.61;77.89;101095.91;5034714;28;19921;-84
2022/01/15 03:49:57;;;;;;;;;;;;;;;3.58;77.86;101091.16;5034711;28;20015;-84
2022/01/15 03:52:23;;;;;;;;;;;;;;;3.62;77.60;101086.53;5040549;28;19917;-84
2022/01/15 03:54:48;;;;;;;;;;;;;;;3.58;77.74;101093.91;5054757;28;20019;-78
2022/01/15 03:57:13;;;;;;;;;;;;;;;3.56;78.00;101093.47;5054145;28;19962;-78
2022/01/15 03:59:40;;;;;;;;;;;;;;;3.58;77.51;101084.88;5040835;28;19952;-78
2022/01/15 04:02:06;;;;;;;;;;;;;;;3.60;77.38;101080.59;5049922;28;20378;-78
2022/01/15 04:04:31;;;;;;;;;;;;;;;3.57;77.42;101097.81;4997576;28;19923;-78
2022/01/15 04:06:57;;;;;;;;;;;;;;;3.57;77.51;101106.03;5033124;28;19927;-78
2022/01/15 04:09:22;;;;;;;;;;;;;;;3.59;77.23;101106.47;5033469;28;19928;-79
2022/01/15 04:11:47;;;;;;;;;;;;;;;3.59;77.53;101111.97;5033689;28;19971;-78
2022/01/15 04:14:13;;;;;;;;;;;;;;;3.65;76.82;101118.72;5016632;28;19925;-78
2022/01/15 04:16:38;;;;;;;;;;;;;;;3.67;76.95;101116.44;5020410;28;19928;-78
2022/01/15 04:19:06;;;;;;;;;;;;;;;3.70;76.64;101120.38;5015478;28;19917;-78
2022/01/15 04:21:32;;;;;;;;;;;;;;;3.63;76.78;101114.78;5018180;28;20070;-78
2022/01/15 04:23:57;;;;;;;;;;;;;;;3.60;77.03;101121.75;5022267;28;20012;-78
2022/01/15 04:26:25;;;;;;;;;;;;;;;3.58;76.72;101124.09;5027064;28;20397;-78
2022/01/15 04:28:51;;;;;;;;;;;;;;;3.54;77.22;101127.91;5026624;28;19959;-78
2022/01/15 04:31:17;;;;;;;;;;;;;;;3.55;77.12;101130.31;5006493;28;19940;-78
2022/01/15 04:33:43;;;;;;;;;;;;;;;3.52;77.17;101133.75;5002842;28;19987;-84
2022/01/15 04:36:09;;;;;;;;;;;;;;;3.46;77.11;101137.97;5029237;28;20311;-79
2022/01/15 04:38:37;;;;;;;;;;;;;;;3.44;77.48;101143.00;5028040;28;19932;-79
2022/01/15 04:41:02;;;;;;;;;;;;;;;3.39;77.55;101143.31;5029039;28;19921;-78
2022/01/15 04:43:28;;;;;;;;;;;;;;;3.36;77.89;101146.75;5023631;28;19924;-78
2022/01/15 04:45:53;;;;;;;;;;;;;;;3.32;77.71;101148.63;5019752;28;20290;-79
2022/01/15 04:48:19;;;;;;;;;;;;;;;3.35;77.72;101141.66;5013576;28;19960;-79
2022/01/15 04:50:44;;;;;;;;;;;;;;;3.38;77.56;101138.97;5021417;28;19928;-84
2022/01/15 04:53:09;;;;;;;;;;;;;;;3.39;77.60;101148.81;5003889;28;19925;-84
2022/01/15 04:55:36;;;;;;;;;;;;;;;3.37;77.73;101144.81;5021524;28;19961;-79
2022/01/15 04:58:01;;;;;;;;;;;;;;;3.42;77.45;101128.88;5027099;28;19920;-78
2022/01/15 05:00:27;;;;;;;;;;;;;;;3.40;77.48;101131.16;5030479;28;20016;-78
2022/01/15 05:02:52;;;;;;;;;;;;;;;3.42;77.24;101128.06;5035646;28;19917;-78
2022/01/15 05:05:17;;;;;;;;;;;;;;;3.42;77.36;101137.09;5047058;28;20324;-78
2022/01/15 05:07:43;;;;;;;;;;;;;;;3.45;77.38;101121.84;5047230;28;20420;-78
2022/01/15 05:10:09;;;;;;;;;;;;;;;3.47;77.29;101116.81;5051837;28;19927;-84
2022/01/15 05:12:43;;;;;;;;;;;;;;;3.49;77.40;101125.47;5026063;28;19921;-84
2022/01/15 05:15:09;;;;;;;;;;;;;;;3.45;77.56;101128.13;5046122;28;19916;-84
2022/01/15 05:17:35;;;;;;;;;;;;;;;3.44;77.78;101126.53;5046363;28;20737;-84
2022/01/15 05:20:01;;;;;;;;;;;;;;;3.46;77.65;101127.00;5047749;28;19920;-84
2022/01/15 05:22:26;;;;;;;;;;;;;;;3.44;78.00;101117.56;5047519;28;19923;-84
2022/01/15 05:24:51;;;;;;;;;;;;;;;3.43;77.84;101126.94;5048512;28;19920;-85
2022/01/15 05:27:17;;;;;;;;;;;;;;;3.40;78.07;101139.41;5050278;28;19967;-84
2022/01/15 05:29:44;;;;;;;;;;;;;;;3.44;77.92;101137.50;5049403;28;19959;-84
2022/01/15 05:32:09;;;;;;;;;;;;;;;3.44;78.01;101132.03;5049063;28;20457;-84
2022/01/15 05:34:34;;;;;;;;;;;;;;;3.42;78.06;101141.78;5048312;28;20003;-84
2022/01/15 05:37:00;;;;;;;;;;;;;;;3.39;78.27;101154.28;5050370;28;19920;-84
2022/01/15 05:39:25;;;;;;;;;;;;;;;3.39;78.41;101153.50;5050470;28;19956;-84
2022/01/15 05:41:51;;;;;;;;;;;;;;;3.40;78.43;101150.38;5046192;28;19913;-84
2022/01/15 05:44:16;;;;;;;;;;;;;;;3.40;78.43;101158.59;5036004;28;20348;-83
2022/01/15 05:46:41;;;;;;;;;;;;;;;3.35;78.89;101153.44;5032102;28;19913;-84
2022/01/15 05:49:07;;;;;;;;;;;;;;;3.31;79.13;101158.03;5036818;28;19928;-78
2022/01/15 05:51:32;;;;;;;;;;;;;;;3.37;78.97;101156.59;5031964;28;20359;-78
2022/01/15 05:54:03;;;;;;;;;;;;;;;3.38;79.12;101157.38;5041338;28;20393;-78
2022/01/15 05:56:29;;;;;;;;;;;;;;;3.38;78.97;101162.88;5045335;28;19961;-78
2022/01/15 05:58:54;;;;;;;;;;;;;;;3.37;79.02;101156.59;5029127;28;19913;-78
2022/01/15 06:01:19;;;;;;;;;;;;;;;3.38;78.88;101158.19;5042684;28;20297;-78
2022/01/15 06:03:45;;;;;;;;;;;;;;;3.37;79.23;101155.78;5040361;28;20317;-78
2022/01/15 06:06:10;;;;;;;;;;;;;;;3.39;78.93;101165.25;5021982;28;20006;-78
2022/01/15 06:08:36;;;;;;;;;;;;;;;3.43;78.76;101166.13;5046055;28;19923;-84
2022/01/15 06:11:01;;;;;;;;;;;;;;;3.44;78.65;101162.22;5046306;28;19921;-78
2022/01/15 06:13:27;;;;;;;;;;;;;;;3.45;78.82;101174.78;5022645;28;20402;-78
2022/01/15 06:15:52;;;;;;;;;;;;;;;3.47;78.21;101164.25;5045377;28;19920;-78
2022/01/15 06:18:17;;;;;;;;;;;;;;;3.49;78.28;101170.16;5042245;28;19913;-78
2022/01/15 06:20:43;;;;;;;;;;;;;;;3.46;78.34;101175.56;5050751;28;19963;-78
2022/01/15 06:23:08;;;;;;;;;;;;;;;3.39;78.42;101181.72;5049658;28;19916;-78
2022/01/15 06:25:34;;;;;;;;;;;;;;;3.34;78.74;101186.69;5043531;28;19975;-78
2022/01/15 06:27:59;;;;;;;;;;;;;;;3.33;78.42;101183.13;5032707;28;19917;-78
2022/01/15 06:30:24;;;;;;;;;;;;;;;3.29;78.92;101185.81;5035558;28;19971;-84
2022/01/15 06:32:50;;;;;;;;;;;;;;;3.28;78.61;101184.22;5042470;28;19970;-84
2022/01/15 06:35:17;;;;;;;;;;;;;;;3.33;78.71;101190.56;5039845;28;19927;-84
2022/01/15 06:37:43;;;;;;;;;;;;;;;3.32;78.73;101186.25;5049763;28;19917;-84
2022/01/15 06:40:10;;;;;;;;;;;;;;;3.29;78.63;101177.59;5041896;28;19912;-84
2022/01/15 06:42:36;;;;;;;;;;;;;;;3.25;79.11;101186.88;5036065;28;19927;-84
2022/01/15 06:45:02;;;;;;;;;;;;;;;3.23;79.02;101191.94;5039769;28;19925;-83
2022/01/15 06:47:28;;;;;;;;;;;;;;;3.14;79.35;101189.41;5035209;28;19917;-78
2022/01/15 06:49:53;;;;;;;;;;;;;;;3.11;79.71;101198.38;5041825;28;19927;-78
2022/01/15 06:52:21;;;;;;;;;;;;;;;3.12;79.59;101193.66;5029111;28;20074;-78
2022/01/15 06:54:46;;;;;;;;;;;;;;;3.14;79.25;101205.06;5027173;28;20426;-78
2022/01/15 06:57:11;;;;;;;;;;;;;;;3.19;78.92;101200.09;5037426;28;19917;-78
2022/01/15 06:59:37;;;;;;;;;;;;;;;3.23;78.79;101200.97;5042935;28;19921;-78
2022/01/15 07:02:03;;;;;;;;;;;;;;;3.28;78.47;101197.94;5048056;28;19959;-79
2022/01/15 07:04:28;;;;;;;;;;;;;;;3.33;78.75;101198.81;5042688;28;19979;-78
2022/01/15 07:06:53;;;;;;;;;;;;;;;3.40;78.08;101199.75;5047386;28;19928;-85
2022/01/15 07:09:19;;;;;;;;;;;;;;;3.43;78.19;101207.28;5030306;28;19974;-84
2022/01/15 07:11:44;;;;;;;;;;;;;;;3.45;77.84;101202.19;5049034;28;19917;-85
2022/01/15 07:14:09;;;;;;;;;;;;;;;3.50;77.51;101204.66;5043377;28;20273;-84
2022/01/15 07:16:35;;;;;;;;;;;;;;;3.50;77.28;101203.88;5038460;28;20394;-84
2022/01/15 07:19:01;;;;;;;;;;;;;;;3.59;76.75;101205.25;5035148;28;19932;-84
2022/01/15 07:21:26;;;;;;;;;;;;;;;3.64;77.48;101199.44;5034484;28;19924;-85
2022/01/15 07:23:51;;;;;;;;;;;;;;;3.65;76.98;101201.03;5033519;28;19921;-80
2022/01/15 07:26:17;;;;;;;;;;;;;;;3.70;76.76;101208.19;5042057;28;19925;-83
2022/01/15 07:28:45;;;;;;;;;;;;;;;3.72;76.68;101200.41;5047419;28;19920;-84
2022/01/15 07:31:10;;;;;;;;;;;;;;;3.78;76.53;101203.63;5048427;28;19920;-84
2022/01/15 07:33:36;;;;;;;;;;;;;;;3.81;76.24;101202.91;5042475;28;19920;-84
2022/01/15 07:36:01;;;;;;;;;;;;;;;3.87;76.02;101204.22;5048781;28;20340;-84
2022/01/15 07:38:26;;;;;;;;;;;;;;;3.95;75.06;101197.69;5042325;28;19943;-84
2022/01/15 07:40:57;;;;;;;;;;;;;;;4.01;74.80;101201.72;5045770;28;19921;-84
2022/01/15 07:43:26;;;;;;;;;;;;;;;4.06;74.84;101198.69;5040117;28;19917;-79
2022/01/15 07:45:51;;;;;;;;;;;;;;;4.10;74.18;101205.81;5044657;28;20019;-79
2022/01/15 07:48:17;;;;;;;;;;;;;;;4.13;74.14;101209.78;5037059;28;20437;-78
2022/01/15 07:50:43;;;;;;;;;;;;;;;4.20;73.87;101218.16;5038307;28;20004;-78
2022/01/15 07:53:09;;;;;;;;;;;;;;;4.25;73.63;101223.34;5034202;28;20381;-79
2022/01/15 07:55:34;;;;;;;;;;;;;;;4.36;72.50;101229.03;5040519;28;19966;-79
2022/01/15 07:58:00;;;;;;;;;;;;;;;4.43;72.84;101226.41;5040848;28;20361;-79
2022/01/15 08:00:26;;;;;;;;;;;;;;;4.45;72.61;101226.84;5030438;28;20319;-84
2022/01/15 08:02:51;;;;;;;;;;;;;;;4.52;72.06;101222.25;5040028;28;19963;-84
2022/01/15 08:05:16;;;;;;;;;;;;;;;4.55;72.20;101215.22;5037698;28;20397;-79
2022/01/15 08:07:42;;;;;;;;;;;;;;;4.58;72.20;101219.97;5043906;28;19917;-79
2022/01/15 08:10:08;;;;;;;;;;;;;;;4.57;71.50;101210.94;5037344;28;19916;-79
2022/01/15 08:12:33;;;;;;;;;;;;;;;4.65;71.81;101215.38;5039865;28;19940;-78
2022/01/15 08:14:59;;;;;;;;;;;;;;;4.66;71.59;101216.97;5043105;28;20415;-79
2022/01/15 08:17:24;;;;;;;;;;;;;;;4.73;70.95;101221.03;5046353;28;20369;-79
2022/01/15 08:19:50;;;;;;;;;;;;;;;4.75;70.71;101224.19;5042948;28;19944;-79
2022/01/15 08:22:15;;;;;;;;;;;;;;;4.81;70.95;101228.22;5048908;28;19927;-84
2022/01/15 08:24:41;;;;;;;;;;;;;;;4.94;70.78;101235.88;5016282;28;19920;-85
2022/01/15 08:27:06;;;;;;;;;;;;;;;5.01;69.96;101240.69;5037070;28;19964;-85
2022/01/15 08:29:31;;;;;;;;;;;;;;;5.05;69.81;101239.59;5044217;28;19913;-84
2022/01/15 08:31:57;;;;;;;;;;;;;;;5.13;69.55;101246.00;5051541;28;20333;-84
2022/01/15 08:34:22;;;;;;;;;;;;;;;5.18;69.05;101251.16;5018034;28;19917;-85
2022/01/15 08:36:48;;;;;;;;;;;;;;;5.23;68.55;101248.09;5049761;28;20370;-85
2022/01/15 08:39:14;;;;;;;;;;;;;;;5.20;68.84;101246.09;5050000;28;19928;-79
2022/01/15 08:41:40;;;;;;;;;;;;;;;5.23;69.09;101244.53;5050870;28;19923;-78
2022/01/15 08:44:06;;;;;;;;;;;;;;;5.22;68.00;101252.00;5045644;28;20402;-79
2022/01/15 08:46:31;;;;;;;;;;;;;;;5.25;68.46;101242.22;5049670;28;19916;-79
2022/01/15 08:48:57;;;;;;;;;;;;;;;5.29;68.42;101232.84;5049222;28;19928;-79
2022/01/15 08:51:22;;;;;;;;;;;;;;;5.30;68.26;101234.41;5024357;28;19913;-79
2022/01/15 08:53:48;;;;;;;;;;;;;;;5.32;67.74;101229.34;5041462;28;19917;-78
2022/01/15 08:56:13;;;;;;;;;;;;;;;5.28;67.86;101225.75;5032136;28;19932;-78
2022/01/15 08:58:38;;;;;;;;;;;;;;;5.32;67.58;101232.09;5041621;28;20381;-84
2022/01/15 09:01:04;;;;;;;;;;;;;;;5.33;67.63;101243.91;5049556;28;19912;-79
2022/01/15 09:03:30;;;;;;;;;;;;;;;5.39;67.36;101232.19;5012287;28;20394;-79
2022/01/15 09:05:55;;;;;;;;;;;;;;;5.42;67.45;101239.69;5006665;28;19917;-79
2022/01/15 09:08:24;;;;;;;;;;;;;;;5.48;66.84;101235.47;5017422;28;20012;-79
2022/01/15 09:10:51;;;;;;;;;;;;;;;5.57;67.38;101230.47;5026933;28;19921;-79
2022/01/15 09:13:16;;;;;;;;;;;;;;;5.64;66.67;101240.78;5027207;28;19920;-79
2022/01/15 09:15:42;;;;;;;;;;;;;;;5.64;66.33;101227.00;5019027;28;19924;-79
2022/01/15 09:18:07;;;;;;;;;;;;;;;5.68;66.51;101235.31;5022606;28;19972;-85
2022/01/15 09:20:33;;;;;;;;;;;;;;;5.66;66.74;101234.91;5026546;28;19921;-78
2022/01/15 09:22:59;;;;;;;;;;;;;;;5.64;66.99;101211.28;5018157;28;20427;-79
2022/01/15 09:25:27;;;;;;;;;;;;;;;5.79;67.29;101228.75;4985928;28;19917;-79
2022/01/15 09:30:36;;;;;;;;;;;;;;;5.97;66.85;101223.50;5022133;28;19925;-79
2022/01/15 09:33:03;;;;;;;;;;;;;;;5.96;66.12;101219.94;5020083;28;20395;-79
2022/01/15 09:35:29;;;;;;;;;;;;;;;6.01;66.27;101210.56;5008281;28;19924;-79
2022/01/15 09:37:55;;;;;;;;;;;;;;;6.02;65.21;101204.69;5004425;28;19917;-79
2022/01/15 09:40:20;;;;;;;;;;;;;;;6.01;65.20;101214.09;5007980;28;19962;-84
2022/01/15 09:42:47;;;;;;;;;;;;;;;6.00;66.05;101211.72;5020544;28;19917;-85
2022/01/15 09:45:13;;;;;;;;;;;;;;;6.05;64.91;101208.63;5021982;28;19928;-84
2022/01/15 09:47:38;;;;;;;;;;;;;;;6.11;64.68;101207.09;5021552;28;19999;-84
2022/01/15 09:50:08;;;;;;;;;;;;;;;6.15;64.10;101213.44;5020786;28;19964;-85
2022/01/15 09:52:34;;;;;;;;;;;;;;;6.16;63.37;101208.72;5017619;28;19976;-85
2022/01/15 09:54:59;;;;;;;;;;;;;;;6.19;63.96;101202.47;5021301;28;20020;-79
2022/01/15 09:57:25;;;;;;;;;;;;;;;6.35;64.10;101206.53;5025160;28;19917;-85
2022/01/15 09:59:50;;;;;;;;;;;;;;;6.47;63.12;101206.25;5023753;28;19909;-85
2022/01/15 10:02:16;;;;;;;;;;;;;;;6.65;62.09;101205.63;5027000;28;19917;-85
2022/01/15 10:04:42;;;;;;;;;;;;;;;6.68;60.86;101207.59;5043381;28;19921;-85
2022/01/15 10:07:08;;;;;;;;;;;;;;;6.74;61.00;101200.56;5028780;28;19985;-85
2022/01/15 10:09:34;;;;;;;;;;;;;;;6.82;60.69;101205.75;5038730;28;19925;-85
2022/01/15 10:11:59;;;;;;;;;;;;;;;6.86;61.26;101197.50;5036647;28;19924;-85
2022/01/15 10:14:25;;;;;;;;;;;;;;;6.84;60.67;101195.13;5036442;28;19913;-85
2022/01/15 10:16:51;;;;;;;;;;;;;;;6.82;60.88;101185.66;5030780;28;20373;-85
2022/01/15 10:19:30;;;;;;;;;;;;;;;6.90;60.83;101192.81;5011025;28;19967;-85
2022/01/15 10:22:05;;;;;;;;;;;;;;;6.81;61.06;101182.09;5042334;28;20362;-85
2022/01/15 10:24:31;;;;;;;;;;;;;;;6.84;61.19;101183.31;5025655;28;19957;-85
2022/01/15 10:26:56;;;;;;;;;;;;;;;6.96;61.49;101175.50;5042828;28;19975;-86
2022/01/15 10:29:21;;;;;;;;;;;;;;;7.00;61.51;101161.72;5028697;28;19920;-85
2022/01/15 10:31:47;;;;;;;;;;;;;;;7.10;61.88;101165.72;5026480;28;19921;-85
2022/01/15 10:34:29;;;;;;;;;;;;;;;7.20;61.39;101170.53;5043569;28;20549;-85
2022/01/15 10:37:04;;;;;;;;;;;;;;;7.31;61.77;101163.09;5027374;28;20402;-79
2022/01/15 10:39:30;;;;;;;;;;;;;;;7.49;60.80;101163.94;5043346;28;19917;-79
2022/01/15 10:41:55;;;;;;;;;;;;;;;7.60;60.40;101164.78;5042929;28;19920;-79
2022/01/15 10:44:33;;;;;;;;;;;;;;;7.74;59.66;101161.25;5041291;28;19916;-79
2022/01/15 10:47:03;;;;;;;;;;;;;;;7.68;58.42;101166.38;5024495;28;19940;-79
2022/01/15 10:49:29;;;;;;;;;;;;;;;7.65;57.98;101171.88;5028831;28;19921;-78
2022/01/15 10:52:14;;;;;;;;;;;;;;;7.56;57.59;101155.69;5048613;28;20812;-79
2022/01/15 10:54:59;;;;;;;;;;;;;;;7.59;57.25;101162.41;5047218;28;19956;-78
2022/01/15 10:57:26;;;;;;;;;;;;;;;7.54;57.25;101160.81;5048894;28;19921;-85
2022/01/15 10:59:57;;;;;;;;;;;;;;;7.54;57.88;101157.25;5045435;28;19917;-85
2022/01/15 11:02:22;;;;;;;;;;;;;;;7.57;56.77;101150.94;5045993;28;19917;-85
2022/01/15 11:04:48;;;;;;;;;;;;;;;7.65;57.15;101150.56;5046241;28;19921;-85
2022/01/15 11:07:14;;;;;;;;;;;;;;;7.68;56.99;101152.59;5045110;28;19924;-85
2022/01/15 11:09:42;;;;;;;;;;;;;;;7.82;56.23;101165.63;5047307;28;19932;-86
2022/01/15 11:12:09;;;;;;;;;;;;;;;7.83;56.64;101158.94;5032526;28;20381;-86
2022/01/15 11:14:35;;;;;;;;;;;;;;;7.82;56.99;101162.84;5043108;28;20431;-86
2022/01/15 11:17:00;;;;;;;;;;;;;;;7.94;56.74;101168.81;5039099;28;19916;-84
2022/01/15 11:19:26;;;;;;;;;;;;;;;7.95;56.75;101178.69;5036786;28;19912;-85
2022/01/15 11:21:52;;;;;;;;;;;;;;;7.92;56.57;101167.63;5041348;28;19956;-84
2022/01/15 11:24:17;;;;;;;;;;;;;;;8.08;56.45;101162.53;5041488;28;20011;-84
2022/01/15 11:26:43;;;;;;;;;;;;;;;8.05;56.15;101160.53;5033768;28;19949;-84
2022/01/15 11:29:08;;;;;;;;;;;;;;;8.07;56.37;101165.66;5020852;28;19932;-84
2022/01/15 11:31:34;;;;;;;;;;;;;;;7.96;56.42;101149.09;5044470;28;19978;-79
2022/01/15 11:34:02;;;;;;;;;;;;;;;8.06;57.07;101162.13;5043854;28;19920;-79
2022/01/15 11:36:27;;;;;;;;;;;;;;;7.99;56.14;101156.59;5046678;28;19920;-78
2022/01/15 11:38:53;;;;;;;;;;;;;;;8.01;56.59;101156.97;5019173;28;19943;-78
2022/01/15 11:41:27;;;;;;;;;;;;;;;8.09;58.10;101158.56;5048714;28;19916;-78
2022/01/15 11:43:56;;;;;;;;;;;;;;;8.00;56.84;101166.47;5026801;28;19921;-78
2022/01/15 11:46:28;;;;;;;;;;;;;;;7.84;58.00;101164.06;5048570;28;20727;-78
2022/01/15 11:49:12;;;;;;;;;;;;;;;7.82;58.21;101160.09;5020253;28;20023;-78
2022/01/15 11:51:37;;;;;;;;;;;;;;;7.96;58.25;101149.09;5051067;28;19967;-78
2022/01/15 11:54:11;;;;;;;;;;;;;;;8.19;58.42;101154.25;5051950;28;19920;-83
2022/01/15 11:56:37;;;;;;;;;;;;;;;8.42;57.54;101149.94;5033239;28;19916;-84
2022/01/15 11:59:21;;;;;;;;;;;;;;;8.58;56.66;101140.44;5033438;28;20374;-84
2022/01/15 12:01:47;;;;;;;;;;;;;;;8.58;56.91;101141.22;5051795;28;19996;-83
2022/01/15 12:04:31;;;;;;;;;;;;;;;8.66;56.54;101136.47;5050468;28;20050;-84
2022/01/15 12:07:05;;;;;;;;;;;;;;;8.80;56.49;101142.78;5037093;28;19917;-84
2022/01/15 12:09:41;;;;;;;;;;;;;;;8.92;55.51;101138.81;5045613;28;20032;-84
2022/01/15 12:12:41;;;;;;;;;;;;;;;8.76;55.26;101130.16;5027301;28;19920;-78
2022/01/15 12:15:07;;;;;;;;;;;;;;;8.88;55.94;101132.50;5047400;28;19928;-78
2022/01/15 12:17:36;;;;;;;;;;;;;;;8.85;55.14;101127.75;5041040;28;19925;-78
2022/01/15 12:20:04;;;;;;;;;;;;;;;8.93;55.18;101123.78;5040991;28;19920;-78
2022/01/15 12:22:36;;;;;;;;;;;;;;;9.09;55.04;101115.03;5033355;28;20040;-78
2022/01/15 12:25:03;;;;;;;;;;;;;;;9.27;55.28;101107.44;5036714;28;20014;-78
2022/01/15 12:27:29;;;;;;;;;;;;;;;9.34;53.95;101108.19;5051447;28;19955;-78
2022/01/15 12:30:05;;;;;;;;;;;;;;;9.46;52.95;101100.66;5048963;28;20443;-84
2022/01/15 12:32:31;;;;;;;;;;;;;;;9.49;52.46;101099.84;5035077;28;19921;-80
2022/01/15 12:34:57;;;;;;;;;;;;;;;9.44;52.46;101092.72;5050913;28;20386;-78
2022/01/15 12:37:22;;;;;;;;;;;;;;;9.24;52.60;101089.66;5003754;28;19921;-78
2022/01/15 12:39:49;;;;;;;;;;;;;;;9.16;53.23;101082.59;5032799;28;20409;-78
2022/01/15 12:42:17;;;;;;;;;;;;;;;9.01;53.05;101092.13;5015262;28;19917;-77
2022/01/15 12:44:46;;;;;;;;;;;;;;;8.98;53.47;101098.44;5039320;28;19917;-77
2022/01/15 12:47:12;;;;;;;;;;;;;;;8.74;53.18;101082.72;5037599;28;20397;-78
2022/01/15 12:49:41;;;;;;;;;;;;;;;8.72;53.24;101090.63;5035435;28;20035;-77
2022/01/15 12:52:07;;;;;;;;;;;;;;;8.70;54.12;101090.22;5048930;28;19921;-77
2022/01/15 12:54:33;;;;;;;;;;;;;;;8.80;53.12;101094.97;5052893;28;19917;-77
2022/01/15 12:56:58;;;;;;;;;;;;;;;8.80;53.67;101083.91;5050504;28;20047;-78
2022/01/15 12:59:27;;;;;;;;;;;;;;;8.87;54.14;101087.44;5038110;28;20279;-78
2022/01/15 13:01:52;;;;;;;;;;;;;;;8.77;53.25;101077.19;5033417;28;20301;-77
2022/01/15 13:04:18;;;;;;;;;;;;;;;8.71;53.95;101083.53;5020616;28;19920;-78
2022/01/15 13:06:49;;;;;;;;;;;;;;;8.72;53.45;101079.56;5041744;28;19987;-77
2022/01/15 13:09:15;;;;;;;;;;;;;;;8.75;53.17;101078.75;5042106;28;20267;-81
2022/01/15 13:11:48;;;;;;;;;;;;;;;8.93;53.53;101079.50;5038639;28;19917;-83
2022/01/15 13:14:13;;;;;;;;;;;;;;;9.07;53.04;101073.91;5041397;28;19951;-84